sensor_id;sensor_type;location;lat;lon;timestamp;P1;durP1;ratioP1;P2;durP2;ratioP2
21825;SDS011;11075;47.944;11.776;2024-02-26T00:02:07;7.40;;;3.97;;
21825;SDS011;11075;47.944;11.776;2024-02-26T00:04:34;4.57;;;3.87;;
21825;SDS011;11075;47.944;11.776;2024-02-26T00:07:01;6.27;;;3.67;;
21825;SDS011;11075;47.944;11.776;2024-02-26T00:09:28;6.93;;;4.17;;
21825;SDS011;11075;47.944;11.776;2024-02-26T00:11:55;6.60;;;4.27;;
21825;SDS011;11075;47.944;11.776;2024-02-26T00:14:22;6.33;;;3.90;;
21825;SDS011;11075;47.944;11.776;2024-02-26T00:16:49;5.60;;;3.60;;
21825;SDS011;11075;47.944;11.776;2024-02-26T00:19:15;6.20;;;3.43;;
21825;SDS011;11075;47.944;11.776;2024-02-26T00:21:42;5.87;;;3.63;;
21825;SDS011;11075;47.944;11.776;2024-02-26T00:24:09;6.03;;;3.83;;
21825;SDS011;11075;47.944;11.776;2024-02-26T00:26:36;5.60;;;3.30;;
21825;SDS011;11075;47.944;11.776;2024-02-26T00:29:03;5.90;;;3.53;;
21825;SDS011;11075;47.944;11.776;2024-02-26T00:31:30;6.63;;;3.83;;
21825;SDS011;11075;47.944;11.776;2024-02-26T00:33:57;6.77;;;3.83;;
21825;SDS011;11075;47.944;11.776;2024-02-26T00:36:24;6.13;;;3.67;;
21825;SDS011;11075;47.944;11.776;2024-02-26T00:38:51;7.30;;;3.70;;
21825;SDS011;11075;47.944;11.776;2024-02-26T00:41:18;7.43;;;4.03;;
21825;SDS011;11075;47.944;11.776;2024-02-26T00:43:45;5.40;;;3.67;;
21825;SDS011;11075;47.944;11.776;2024-02-26T00:46:13;6.57;;;3.80;;
21825;SDS011;11075;47.944;11.776;2024-02-26T00:48:39;6.67;;;4.00;;
21825;SDS011;11075;47.944;11.776;2024-02-26T00:51:06;7.47;;;3.90;;
21825;SDS011;11075;47.944;11.776;2024-02-26T00:53:34;5.80;;;4.23;;
21825;SDS011;11075;47.944;11.776;2024-02-26T00:56:01;6.70;;;3.80;;
21825;SDS011;11075;47.944;11.776;2024-02-26T00:58:28;6.50;;;4.00;;
21825;SDS011;11075;47.944;11.776;2024-02-26T01:00:54;5.73;;;3.80;;
21825;SDS011;11075;47.944;11.776;2024-02-26T01:03:22;8.93;;;4.43;;
21825;SDS011;11075;47.944;11.776;2024-02-26T01:05:49;5.67;;;4.00;;
21825;SDS011;11075;47.944;11.776;2024-02-26T01:08:18;6.90;;;4.60;;
21825;SDS011;11075;47.944;11.776;2024-02-26T01:10:45;5.50;;;3.80;;
21825;SDS011;11075;47.944;11.776;2024-02-26T01:13:12;5.20;;;4.00;;
21825;SDS011;11075;47.944;11.776;2024-02-26T01:15:39;6.97;;;3.67;;
21825;SDS011;11075;47.944;11.776;2024-02-26T01:18:05;6.67;;;3.80;;
21825;SDS011;11075;47.944;11.776;2024-02-26T01:20:32;15.13;;;6.90;;
21825;SDS011;11075;47.944;11.776;2024-02-26T01:22:59;6.20;;;4.00;;
21825;SDS011;11075;47.944;11.776;2024-02-26T01:25:26;5.50;;;3.77;;
21825;SDS011;11075;47.944;11.776;2024-02-26T01:27:53;10.23;;;3.80;;
21825;SDS011;11075;47.944;11.776;2024-02-26T01:30:20;5.90;;;3.37;;
21825;SDS011;11075;47.944;11.776;2024-02-26T01:32:47;6.63;;;3.73;;
21825;SDS011;11075;47.944;11.776;2024-02-26T01:35:14;23.33;;;8.00;;
21825;SDS011;11075;47.944;11.776;2024-02-26T01:37:41;6.13;;;3.97;;
21825;SDS011;11075;47.944;11.776;2024-02-26T01:40:08;7.57;;;4.33;;
21825;SDS011;11075;47.944;11.776;2024-02-26T01:42:37;21.53;;;9.00;;
21825;SDS011;11075;47.944;11.776;2024-02-26T01:45:05;5.90;;;4.10;;
21825;SDS011;11075;47.944;11.776;2024-02-26T01:47:33;7.67;;;3.83;;
21825;SDS011;11075;47.944;11.776;2024-02-26T01:50:00;6.20;;;3.47;;
21825;SDS011;11075;47.944;11.776;2024-02-26T01:52:27;6.13;;;3.87;;
21825;SDS011;11075;47.944;11.776;2024-02-26T01:54:54;4.87;;;3.70;;
21825;SDS011;11075;47.944;11.776;2024-02-26T01:57:21;4.93;;;3.50;;
21825;SDS011;11075;47.944;11.776;2024-02-26T01:59:48;4.13;;;3.50;;
21825;SDS011;11075;47.944;11.776;2024-02-26T02:02:15;6.97;;;4.30;;
21825;SDS011;11075;47.944;11.776;2024-02-26T02:04:42;6.90;;;3.70;;
21825;SDS011;11075;47.944;11.776;2024-02-26T02:07:09;4.50;;;3.33;;
21825;SDS011;11075;47.944;11.776;2024-02-26T02:09:36;8.60;;;3.87;;
21825;SDS011;11075;47.944;11.776;2024-02-26T02:12:04;6.40;;;3.90;;
21825;SDS011;11075;47.944;11.776;2024-02-26T02:14:31;6.50;;;3.57;;
21825;SDS011;11075;47.944;11.776;2024-02-26T02:16:58;5.50;;;3.80;;
21825;SDS011;11075;47.944;11.776;2024-02-26T02:19:24;11.03;;;5.87;;
21825;SDS011;11075;47.944;11.776;2024-02-26T02:21:51;27.00;;;11.13;;
21825;SDS011;11075;47.944;11.776;2024-02-26T02:24:18;22.60;;;9.00;;
21825;SDS011;11075;47.944;11.776;2024-02-26T02:26:45;8.77;;;5.53;;
21825;SDS011;11075;47.944;11.776;2024-02-26T02:29:12;6.33;;;3.87;;
21825;SDS011;11075;47.944;11.776;2024-02-26T02:31:39;4.67;;;3.47;;
21825;SDS011;11075;47.944;11.776;2024-02-26T02:34:07;5.17;;;3.30;;
21825;SDS011;11075;47.944;11.776;2024-02-26T02:36:47;5.77;;;3.40;;
21825;SDS011;11075;47.944;11.776;2024-02-26T02:39:23;5.93;;;3.90;;
21825;SDS011;11075;47.944;11.776;2024-02-26T02:41:49;7.23;;;3.50;;
21825;SDS011;11075;47.944;11.776;2024-02-26T02:44:16;6.07;;;4.30;;
21825;SDS011;11075;47.944;11.776;2024-02-26T02:46:43;3.50;;;2.90;;
21825;SDS011;11075;47.944;11.776;2024-02-26T02:49:10;6.33;;;3.10;;
21825;SDS011;11075;47.944;11.776;2024-02-26T02:51:37;8.73;;;5.10;;
21825;SDS011;11075;47.944;11.776;2024-02-26T02:54:04;25.77;;;15.50;;
21825;SDS011;11075;47.944;11.776;2024-02-26T02:56:31;14.83;;;7.70;;
21825;SDS011;11075;47.944;11.776;2024-02-26T02:58:58;7.23;;;4.00;;
21825;SDS011;11075;47.944;11.776;2024-02-26T03:01:24;4.17;;;2.83;;
21825;SDS011;11075;47.944;11.776;2024-02-26T03:03:51;3.83;;;2.80;;
21825;SDS011;11075;47.944;11.776;2024-02-26T03:06:18;3.87;;;3.00;;
21825;SDS011;11075;47.944;11.776;2024-02-26T03:08:47;10.37;;;4.87;;
21825;SDS011;11075;47.944;11.776;2024-02-26T03:11:14;5.33;;;3.57;;
21825;SDS011;11075;47.944;11.776;2024-02-26T03:13:41;5.33;;;3.00;;
21825;SDS011;11075;47.944;11.776;2024-02-26T03:16:08;6.23;;;3.03;;
21825;SDS011;11075;47.944;11.776;2024-02-26T03:18:35;4.80;;;3.40;;
21825;SDS011;11075;47.944;11.776;2024-02-26T03:21:04;6.70;;;4.00;;
21825;SDS011;11075;47.944;11.776;2024-02-26T03:23:32;3.70;;;2.97;;
21825;SDS011;11075;47.944;11.776;2024-02-26T03:26:03;3.87;;;2.77;;
21825;SDS011;11075;47.944;11.776;2024-02-26T03:28:30;3.20;;;2.20;;
21825;SDS011;11075;47.944;11.776;2024-02-26T03:31:00;6.60;;;4.20;;
21825;SDS011;11075;47.944;11.776;2024-02-26T03:33:28;8.90;;;5.23;;
21825;SDS011;11075;47.944;11.776;2024-02-26T03:35:55;10.57;;;5.30;;
21825;SDS011;11075;47.944;11.776;2024-02-26T03:38:22;5.37;;;2.60;;
21825;SDS011;11075;47.944;11.776;2024-02-26T03:40:49;3.87;;;2.77;;
21825;SDS011;11075;47.944;11.776;2024-02-26T03:43:16;3.60;;;2.57;;
21825;SDS011;11075;47.944;11.776;2024-02-26T03:45:43;4.03;;;2.50;;
21825;SDS011;11075;47.944;11.776;2024-02-26T03:48:10;4.20;;;2.40;;
21825;SDS011;11075;47.944;11.776;2024-02-26T03:50:37;3.57;;;2.37;;
21825;SDS011;11075;47.944;11.776;2024-02-26T03:53:04;2.57;;;2.30;;
21825;SDS011;11075;47.944;11.776;2024-02-26T03:55:31;3.73;;;2.43;;
21825;SDS011;11075;47.944;11.776;2024-02-26T03:57:58;3.03;;;2.03;;
21825;SDS011;11075;47.944;11.776;2024-02-26T04:00:25;2.87;;;2.30;;
21825;SDS011;11075;47.944;11.776;2024-02-26T04:02:53;2.70;;;2.10;;
21825;SDS011;11075;47.944;11.776;2024-02-26T04:05:20;2.40;;;1.97;;
21825;SDS011;11075;47.944;11.776;2024-02-26T04:07:47;3.80;;;2.53;;
21825;SDS011;11075;47.944;11.776;2024-02-26T04:10:14;5.97;;;2.57;;
21825;SDS011;11075;47.944;11.776;2024-02-26T04:12:41;3.20;;;2.30;;
21825;SDS011;11075;47.944;11.776;2024-02-26T04:15:09;4.00;;;2.30;;
21825;SDS011;11075;47.944;11.776;2024-02-26T04:17:37;2.77;;;2.10;;
21825;SDS011;11075;47.944;11.776;2024-02-26T04:20:05;3.40;;;2.17;;
21825;SDS011;11075;47.944;11.776;2024-02-26T04:22:33;7.07;;;2.13;;
21825;SDS011;11075;47.944;11.776;2024-02-26T04:24:59;3.80;;;2.33;;
21825;SDS011;11075;47.944;11.776;2024-02-26T04:27:26;3.37;;;2.20;;
21825;SDS011;11075;47.944;11.776;2024-02-26T04:29:53;2.93;;;2.20;;
21825;SDS011;11075;47.944;11.776;2024-02-26T04:32:20;2.43;;;2.00;;
21825;SDS011;11075;47.944;11.776;2024-02-26T04:34:47;4.13;;;2.10;;
21825;SDS011;11075;47.944;11.776;2024-02-26T04:37:14;3.70;;;2.57;;
21825;SDS011;11075;47.944;11.776;2024-02-26T04:39:40;3.07;;;2.10;;
21825;SDS011;11075;47.944;11.776;2024-02-26T04:42:07;2.60;;;2.07;;
21825;SDS011;11075;47.944;11.776;2024-02-26T04:44:34;2.90;;;2.10;;
21825;SDS011;11075;47.944;11.776;2024-02-26T04:47:01;2.30;;;1.60;;
21825;SDS011;11075;47.944;11.776;2024-02-26T04:49:28;6.03;;;2.30;;
21825;SDS011;11075;47.944;11.776;2024-02-26T04:51:55;3.70;;;2.37;;
21825;SDS011;11075;47.944;11.776;2024-02-26T04:54:22;3.47;;;2.07;;
21825;SDS011;11075;47.944;11.776;2024-02-26T04:56:49;3.83;;;2.03;;
21825;SDS011;11075;47.944;11.776;2024-02-26T04:59:16;3.07;;;2.10;;
21825;SDS011;11075;47.944;11.776;2024-02-26T05:01:43;3.80;;;2.13;;
21825;SDS011;11075;47.944;11.776;2024-02-26T05:04:10;2.20;;;1.97;;
21825;SDS011;11075;47.944;11.776;2024-02-26T05:06:38;2.50;;;1.67;;
21825;SDS011;11075;47.944;11.776;2024-02-26T05:09:05;4.37;;;2.00;;
21825;SDS011;11075;47.944;11.776;2024-02-26T05:11:32;2.67;;;1.77;;
21825;SDS011;11075;47.944;11.776;2024-02-26T05:13:59;3.47;;;1.93;;
21825;SDS011;11075;47.944;11.776;2024-02-26T05:16:27;2.23;;;1.90;;
21825;SDS011;11075;47.944;11.776;2024-02-26T05:18:54;2.73;;;1.70;;
21825;SDS011;11075;47.944;11.776;2024-02-26T05:21:22;2.60;;;2.00;;
21825;SDS011;11075;47.944;11.776;2024-02-26T05:23:49;1.97;;;1.67;;
21825;SDS011;11075;47.944;11.776;2024-02-26T05:26:22;2.37;;;1.93;;
21825;SDS011;11075;47.944;11.776;2024-02-26T05:28:49;2.83;;;1.83;;
21825;SDS011;11075;47.944;11.776;2024-02-26T05:31:16;2.43;;;1.77;;
21825;SDS011;11075;47.944;11.776;2024-02-26T05:33:44;1.97;;;1.47;;
21825;SDS011;11075;47.944;11.776;2024-02-26T05:36:17;3.47;;;1.60;;
21825;SDS011;11075;47.944;11.776;2024-02-26T05:38:49;1.93;;;1.50;;
21825;SDS011;11075;47.944;11.776;2024-02-26T05:41:16;1.97;;;1.47;;
21825;SDS011;11075;47.944;11.776;2024-02-26T05:43:46;2.17;;;1.53;;
21825;SDS011;11075;47.944;11.776;2024-02-26T05:46:13;1.53;;;1.43;;
21825;SDS011;11075;47.944;11.776;2024-02-26T05:48:44;2.23;;;1.57;;
21825;SDS011;11075;47.944;11.776;2024-02-26T05:51:11;2.50;;;1.63;;
21825;SDS011;11075;47.944;11.776;2024-02-26T05:53:38;3.23;;;1.83;;
21825;SDS011;11075;47.944;11.776;2024-02-26T05:56:05;1.90;;;1.50;;
21825;SDS011;11075;47.944;11.776;2024-02-26T05:58:32;3.50;;;1.87;;
21825;SDS011;11075;47.944;11.776;2024-02-26T06:00:59;2.53;;;1.50;;
21825;SDS011;11075;47.944;11.776;2024-02-26T06:03:27;2.70;;;1.53;;
21825;SDS011;11075;47.944;11.776;2024-02-26T06:05:54;4.60;;;1.87;;
21825;SDS011;11075;47.944;11.776;2024-02-26T06:08:21;2.50;;;1.80;;
21825;SDS011;11075;47.944;11.776;2024-02-26T06:10:48;2.53;;;1.63;;
21825;SDS011;11075;47.944;11.776;2024-02-26T06:13:15;2.83;;;2.10;;
21825;SDS011;11075;47.944;11.776;2024-02-26T06:15:42;2.23;;;1.73;;
21825;SDS011;11075;47.944;11.776;2024-02-26T06:18:09;6.03;;;2.50;;
21825;SDS011;11075;47.944;11.776;2024-02-26T06:20:36;4.43;;;2.10;;
21825;SDS011;11075;47.944;11.776;2024-02-26T06:23:02;5.17;;;2.10;;
21825;SDS011;11075;47.944;11.776;2024-02-26T06:25:29;2.83;;;1.80;;
21825;SDS011;11075;47.944;11.776;2024-02-26T06:27:56;3.03;;;2.17;;
21825;SDS011;11075;47.944;11.776;2024-02-26T06:30:23;2.27;;;1.77;;
21825;SDS011;11075;47.944;11.776;2024-02-26T06:32:50;2.13;;;1.60;;
21825;SDS011;11075;47.944;11.776;2024-02-26T06:35:17;2.43;;;1.80;;
21825;SDS011;11075;47.944;11.776;2024-02-26T06:37:44;3.17;;;1.80;;
21825;SDS011;11075;47.944;11.776;2024-02-26T06:40:11;2.17;;;1.70;;
21825;SDS011;11075;47.944;11.776;2024-02-26T06:42:37;2.70;;;1.50;;
21825;SDS011;11075;47.944;11.776;2024-02-26T06:45:04;2.73;;;1.70;;
21825;SDS011;11075;47.944;11.776;2024-02-26T06:47:32;2.23;;;1.70;;
21825;SDS011;11075;47.944;11.776;2024-02-26T06:49:59;3.53;;;1.33;;
21825;SDS011;11075;47.944;11.776;2024-02-26T06:52:27;1.30;;;1.20;;
21825;SDS011;11075;47.944;11.776;2024-02-26T06:54:54;2.00;;;1.40;;
21825;SDS011;11075;47.944;11.776;2024-02-26T06:57:21;2.30;;;1.50;;
21825;SDS011;11075;47.944;11.776;2024-02-26T06:59:48;4.40;;;1.30;;
21825;SDS011;11075;47.944;11.776;2024-02-26T07:02:15;2.23;;;1.60;;
21825;SDS011;11075;47.944;11.776;2024-02-26T07:04:43;1.83;;;1.70;;
21825;SDS011;11075;47.944;11.776;2024-02-26T07:07:10;2.13;;;1.50;;
21825;SDS011;11075;47.944;11.776;2024-02-26T07:09:37;2.13;;;1.50;;
21825;SDS011;11075;47.944;11.776;2024-02-26T07:12:04;3.60;;;1.70;;
21825;SDS011;11075;47.944;11.776;2024-02-26T07:14:31;2.23;;;1.60;;
21825;SDS011;11075;47.944;11.776;2024-02-26T07:16:59;3.00;;;1.30;;
21825;SDS011;11075;47.944;11.776;2024-02-26T07:19:26;4.67;;;1.80;;
21825;SDS011;11075;47.944;11.776;2024-02-26T07:21:53;1.57;;;1.37;;
21825;SDS011;11075;47.944;11.776;2024-02-26T07:24:20;7.23;;;1.97;;
21825;SDS011;11075;47.944;11.776;2024-02-26T07:26:47;2.00;;;1.40;;
21825;SDS011;11075;47.944;11.776;2024-02-26T07:29:13;3.67;;;1.67;;
21825;SDS011;11075;47.944;11.776;2024-02-26T07:31:40;2.07;;;1.40;;
21825;SDS011;11075;47.944;11.776;2024-02-26T07:34:07;4.33;;;2.60;;
21825;SDS011;11075;47.944;11.776;2024-02-26T07:36:34;4.20;;;1.77;;
21825;SDS011;11075;47.944;11.776;2024-02-26T07:39:02;3.83;;;1.67;;
21825;SDS011;11075;47.944;11.776;2024-02-26T07:41:29;5.10;;;2.47;;
21825;SDS011;11075;47.944;11.776;2024-02-26T07:43:56;6.40;;;3.37;;
21825;SDS011;11075;47.944;11.776;2024-02-26T07:46:23;9.17;;;3.90;;
21825;SDS011;11075;47.944;11.776;2024-02-26T07:48:50;3.97;;;2.40;;
21825;SDS011;11075;47.944;11.776;2024-02-26T07:51:17;3.87;;;1.90;;
21825;SDS011;11075;47.944;11.776;2024-02-26T07:53:43;2.33;;;1.10;;
21825;SDS011;11075;47.944;11.776;2024-02-26T07:56:10;1.70;;;1.20;;
21825;SDS011;11075;47.944;11.776;2024-02-26T07:58:37;3.20;;;1.10;;
21825;SDS011;11075;47.944;11.776;2024-02-26T08:01:04;3.27;;;1.37;;
21825;SDS011;11075;47.944;11.776;2024-02-26T08:03:31;3.87;;;1.37;;
21825;SDS011;11075;47.944;11.776;2024-02-26T08:05:58;2.23;;;1.30;;
21825;SDS011;11075;47.944;11.776;2024-02-26T08:08:25;2.37;;;1.50;;
21825;SDS011;11075;47.944;11.776;2024-02-26T08:10:52;3.50;;;1.70;;
21825;SDS011;11075;47.944;11.776;2024-02-26T08:13:18;3.70;;;1.60;;
21825;SDS011;11075;47.944;11.776;2024-02-26T08:15:45;4.07;;;2.03;;
21825;SDS011;11075;47.944;11.776;2024-02-26T08:18:12;4.87;;;2.27;;
21825;SDS011;11075;47.944;11.776;2024-02-26T08:20:39;3.90;;;2.17;;
21825;SDS011;11075;47.944;11.776;2024-02-26T08:23:06;2.97;;;1.93;;
21825;SDS011;11075;47.944;11.776;2024-02-26T08:25:33;12.83;;;3.30;;
21825;SDS011;11075;47.944;11.776;2024-02-26T08:28:00;5.87;;;2.27;;
21825;SDS011;11075;47.944;11.776;2024-02-26T08:30:27;7.83;;;2.27;;
21825;SDS011;11075;47.944;11.776;2024-02-26T08:32:54;4.97;;;2.00;;
21825;SDS011;11075;47.944;11.776;2024-02-26T08:35:21;4.23;;;2.20;;
21825;SDS011;11075;47.944;11.776;2024-02-26T08:37:48;4.73;;;1.87;;
21825;SDS011;11075;47.944;11.776;2024-02-26T08:40:15;6.83;;;2.17;;
21825;SDS011;11075;47.944;11.776;2024-02-26T08:42:42;3.17;;;1.70;;
21825;SDS011;11075;47.944;11.776;2024-02-26T08:45:09;5.13;;;1.90;;
21825;SDS011;11075;47.944;11.776;2024-02-26T08:47:36;8.77;;;2.57;;
21825;SDS011;11075;47.944;11.776;2024-02-26T08:50:04;7.77;;;2.00;;
21825;SDS011;11075;47.944;11.776;2024-02-26T08:52:31;20.73;;;2.17;;
21825;SDS011;11075;47.944;11.776;2024-02-26T08:54:59;6.97;;;2.00;;
21825;SDS011;11075;47.944;11.776;2024-02-26T08:57:26;6.57;;;1.80;;
21825;SDS011;11075;47.944;11.776;2024-02-26T08:59:58;5.27;;;1.57;;
21825;SDS011;11075;47.944;11.776;2024-02-26T09:02:25;4.30;;;1.80;;
21825;SDS011;11075;47.944;11.776;2024-02-26T09:04:52;5.50;;;1.40;;
21825;SDS011;11075;47.944;11.776;2024-02-26T09:07:21;1.73;;;1.30;;
21825;SDS011;11075;47.944;11.776;2024-02-26T09:09:48;2.63;;;1.50;;
21825;SDS011;11075;47.944;11.776;2024-02-26T09:12:15;1.77;;;1.60;;
21825;SDS011;11075;47.944;11.776;2024-02-26T09:14:42;2.07;;;1.20;;
21825;SDS011;11075;47.944;11.776;2024-02-26T09:17:09;2.47;;;1.20;;
21825;SDS011;11075;47.944;11.776;2024-02-26T09:19:36;3.07;;;1.60;;
21825;SDS011;11075;47.944;11.776;2024-02-26T09:22:04;2.33;;;1.40;;
21825;SDS011;11075;47.944;11.776;2024-02-26T09:24:31;9.80;;;2.13;;
21825;SDS011;11075;47.944;11.776;2024-02-26T09:26:58;4.97;;;1.90;;
21825;SDS011;11075;47.944;11.776;2024-02-26T09:29:25;2.43;;;1.57;;
21825;SDS011;11075;47.944;11.776;2024-02-26T09:31:53;7.47;;;2.10;;
21825;SDS011;11075;47.944;11.776;2024-02-26T09:34:19;9.20;;;2.17;;
21825;SDS011;11075;47.944;11.776;2024-02-26T09:36:47;2.80;;;2.07;;
21825;SDS011;11075;47.944;11.776;2024-02-26T09:39:13;2.73;;;1.83;;
21825;SDS011;11075;47.944;11.776;2024-02-26T09:41:50;4.90;;;2.23;;
21825;SDS011;11075;47.944;11.776;2024-02-26T09:44:18;2.20;;;1.70;;
21825;SDS011;11075;47.944;11.776;2024-02-26T09:46:49;5.80;;;2.13;;
21825;SDS011;11075;47.944;11.776;2024-02-26T09:49:19;3.27;;;1.40;;
21825;SDS011;11075;47.944;11.776;2024-02-26T09:51:48;2.37;;;1.47;;
21825;SDS011;11075;47.944;11.776;2024-02-26T09:54:17;4.53;;;1.80;;
21825;SDS011;11075;47.944;11.776;2024-02-26T09:56:44;3.50;;;1.67;;
21825;SDS011;11075;47.944;11.776;2024-02-26T09:59:28;2.10;;;1.70;;
21825;SDS011;11075;47.944;11.776;2024-02-26T10:02:01;5.47;;;2.17;;
21825;SDS011;11075;47.944;11.776;2024-02-26T10:04:29;2.13;;;1.50;;
21825;SDS011;11075;47.944;11.776;2024-02-26T10:06:58;3.57;;;2.10;;
21825;SDS011;11075;47.944;11.776;2024-02-26T10:09:26;6.17;;;2.10;;
21825;SDS011;11075;47.944;11.776;2024-02-26T10:11:54;7.40;;;2.80;;
21825;SDS011;11075;47.944;11.776;2024-02-26T10:14:21;9.27;;;2.17;;
21825;SDS011;11075;47.944;11.776;2024-02-26T10:16:49;6.97;;;2.50;;
21825;SDS011;11075;47.944;11.776;2024-02-26T10:19:26;9.80;;;2.53;;
21825;SDS011;11075;47.944;11.776;2024-02-26T10:21:57;2.23;;;1.60;;
21825;SDS011;11075;47.944;11.776;2024-02-26T10:24:29;7.70;;;2.13;;
21825;SDS011;11075;47.944;11.776;2024-02-26T10:26:57;2.13;;;1.50;;
21825;SDS011;11075;47.944;11.776;2024-02-26T10:29:24;5.73;;;2.10;;
21825;SDS011;11075;47.944;11.776;2024-02-26T10:31:52;3.40;;;2.00;;
21825;SDS011;11075;47.944;11.776;2024-02-26T10:34:19;3.67;;;2.20;;
21825;SDS011;11075;47.944;11.776;2024-02-26T10:36:47;5.87;;;2.10;;
21825;SDS011;11075;47.944;11.776;2024-02-26T10:39:19;4.23;;;1.80;;
21825;SDS011;11075;47.944;11.776;2024-02-26T10:41:47;2.93;;;1.83;;
21825;SDS011;11075;47.944;11.776;2024-02-26T10:44:14;5.00;;;2.13;;
21825;SDS011;11075;47.944;11.776;2024-02-26T10:46:46;3.17;;;1.67;;
21825;SDS011;11075;47.944;11.776;2024-02-26T10:49:15;2.80;;;2.00;;
21825;SDS011;11075;47.944;11.776;2024-02-26T10:51:50;3.20;;;1.90;;
21825;SDS011;11075;47.944;11.776;2024-02-26T10:54:21;2.72;;;1.73;;
21825;SDS011;11075;47.944;11.776;2024-02-26T10:56:52;4.57;;;1.52;;
21825;SDS011;11075;47.944;11.776;2024-02-26T10:59:21;5.07;;;1.48;;
21825;SDS011;11075;47.944;11.776;2024-02-26T11:01:49;3.42;;;1.27;;
21825;SDS011;11075;47.944;11.776;2024-02-26T11:04:17;2.17;;;1.38;;
21825;SDS011;11075;47.944;11.776;2024-02-26T11:06:45;1.42;;;1.15;;
21825;SDS011;11075;47.944;11.776;2024-02-26T11:09:15;4.60;;;1.70;;
21825;SDS011;11075;47.944;11.776;2024-02-26T11:11:43;2.45;;;1.65;;
21825;SDS011;11075;47.944;11.776;2024-02-26T11:14:11;2.28;;;1.58;;
21825;SDS011;11075;47.944;11.776;2024-02-26T11:16:39;3.60;;;1.60;;
21825;SDS011;11075;47.944;11.776;2024-02-26T11:19:09;3.00;;;1.63;;
21825;SDS011;11075;47.944;11.776;2024-02-26T11:21:38;8.30;;;1.63;;
21825;SDS011;11075;47.944;11.776;2024-02-26T11:24:10;3.22;;;1.70;;
21825;SDS011;11075;47.944;11.776;2024-02-26T11:26:50;5.68;;;1.40;;
21825;SDS011;11075;47.944;11.776;2024-02-26T11:29:28;5.95;;;2.03;;
21825;SDS011;11075;47.944;11.776;2024-02-26T11:32:01;2.95;;;1.67;;
21825;SDS011;11075;47.944;11.776;2024-02-26T11:34:28;2.97;;;1.90;;
21825;SDS011;11075;47.944;11.776;2024-02-26T11:36:57;3.75;;;1.88;;
21825;SDS011;11075;47.944;11.776;2024-02-26T11:39:35;2.13;;;1.65;;
21825;SDS011;11075;47.944;11.776;2024-02-26T11:42:08;2.05;;;1.08;;
21825;SDS011;11075;47.944;11.776;2024-02-26T11:44:36;2.88;;;1.45;;
21825;SDS011;11075;47.944;11.776;2024-02-26T11:47:12;1.65;;;1.33;;
21825;SDS011;11075;47.944;11.776;2024-02-26T11:49:44;1.50;;;1.10;;
21825;SDS011;11075;47.944;11.776;2024-02-26T11:52:12;1.85;;;1.42;;
21825;SDS011;11075;47.944;11.776;2024-02-26T11:54:44;1.80;;;1.10;;
21825;SDS011;11075;47.944;11.776;2024-02-26T12:00:15;1.17;;;1.00;;
21825;SDS011;11075;47.944;11.776;2024-02-26T12:02:50;1.48;;;1.00;;
21825;SDS011;11075;47.944;11.776;2024-02-26T12:05:32;1.60;;;0.80;;
21825;SDS011;11075;47.944;11.776;2024-02-26T12:08:01;1.52;;;1.05;;
21825;SDS011;11075;47.944;11.776;2024-02-26T12:10:37;1.58;;;0.90;;
21825;SDS011;11075;47.944;11.776;2024-02-26T12:13:07;1.95;;;1.48;;
21825;SDS011;11075;47.944;11.776;2024-02-26T12:15:46;1.38;;;1.10;;
21825;SDS011;11075;47.944;11.776;2024-02-26T12:18:22;2.78;;;1.27;;
21825;SDS011;11075;47.944;11.776;2024-02-26T12:20:59;2.42;;;1.20;;
21825;SDS011;11075;47.944;11.776;2024-02-26T12:23:31;3.63;;;1.63;;
21825;SDS011;11075;47.944;11.776;2024-02-26T12:25:58;2.35;;;1.40;;
21825;SDS011;11075;47.944;11.776;2024-02-26T12:28:29;2.58;;;1.30;;
21825;SDS011;11075;47.944;11.776;2024-02-26T12:30:56;2.33;;;1.13;;
21825;SDS011;11075;47.944;11.776;2024-02-26T12:33:26;1.48;;;1.15;;
21825;SDS011;11075;47.944;11.776;2024-02-26T12:35:55;1.25;;;0.90;;
21825;SDS011;11075;47.944;11.776;2024-02-26T12:38:22;1.40;;;1.00;;
21825;SDS011;11075;47.944;11.776;2024-02-26T12:40:49;0.80;;;0.80;;
21825;SDS011;11075;47.944;11.776;2024-02-26T12:43:17;1.90;;;0.85;;
21825;SDS011;11075;47.944;11.776;2024-02-26T12:45:44;1.75;;;0.80;;
21825;SDS011;11075;47.944;11.776;2024-02-26T12:48:14;1.70;;;0.85;;
21825;SDS011;11075;47.944;11.776;2024-02-26T12:50:48;0.40;;;0.40;;
21825;SDS011;11075;47.944;11.776;2024-02-26T12:53:15;1.98;;;0.60;;
21825;SDS011;11075;47.944;11.776;2024-02-26T12:55:42;0.88;;;0.50;;
21825;SDS011;11075;47.944;11.776;2024-02-26T12:58:10;1.65;;;0.63;;
21825;SDS011;11075;47.944;11.776;2024-02-26T13:00:38;3.40;;;0.60;;
21825;SDS011;11075;47.944;11.776;2024-02-26T13:03:05;0.60;;;0.50;;
21825;SDS011;11075;47.944;11.776;2024-02-26T13:05:33;0.80;;;0.50;;
21825;SDS011;11075;47.944;11.776;2024-02-26T13:08:00;2.00;;;0.63;;
21825;SDS011;11075;47.944;11.776;2024-02-26T13:10:31;0.73;;;0.45;;
21825;SDS011;11075;47.944;11.776;2024-02-26T13:12:58;1.20;;;0.57;;
21825;SDS011;11075;47.944;11.776;2024-02-26T13:15:29;0.98;;;0.40;;
21825;SDS011;11075;47.944;11.776;2024-02-26T13:17:56;3.78;;;0.68;;
21825;SDS011;11075;47.944;11.776;2024-02-26T13:23:04;1.83;;;0.93;;
21825;SDS011;11075;47.944;11.776;2024-02-26T13:25:35;3.58;;;0.60;;
21825;SDS011;11075;47.944;11.776;2024-02-26T13:28:09;1.58;;;0.77;;
21825;SDS011;11075;47.944;11.776;2024-02-26T13:30:51;3.80;;;0.80;;
21825;SDS011;11075;47.944;11.776;2024-02-26T13:33:19;1.88;;;0.75;;
21825;SDS011;11075;47.944;11.776;2024-02-26T13:35:50;2.90;;;0.80;;
21825;SDS011;11075;47.944;11.776;2024-02-26T13:38:17;2.97;;;0.88;;
21825;SDS011;11075;47.944;11.776;2024-02-26T13:40:44;3.72;;;0.95;;
21825;SDS011;11075;47.944;11.776;2024-02-26T13:43:11;0.90;;;0.52;;
21825;SDS011;11075;47.944;11.776;2024-02-26T13:45:38;3.30;;;0.77;;
21825;SDS011;11075;47.944;11.776;2024-02-26T13:48:06;2.95;;;0.65;;
21825;SDS011;11075;47.944;11.776;2024-02-26T13:50:37;2.72;;;0.60;;
21825;SDS011;11075;47.944;11.776;2024-02-26T13:53:09;1.13;;;0.60;;
21825;SDS011;11075;47.944;11.776;2024-02-26T13:55:37;1.02;;;0.80;;
21825;SDS011;11075;47.944;11.776;2024-02-26T13:58:06;0.65;;;0.60;;
21825;SDS011;11075;47.944;11.776;2024-02-26T14:00:33;0.70;;;0.55;;
21825;SDS011;11075;47.944;11.776;2024-02-26T14:03:01;0.95;;;0.50;;
21825;SDS011;11075;47.944;11.776;2024-02-26T14:05:29;2.20;;;1.15;;
21825;SDS011;11075;47.944;11.776;2024-02-26T14:07:56;2.20;;;0.60;;
21825;SDS011;11075;47.944;11.776;2024-02-26T14:10:24;0.82;;;0.50;;
21825;SDS011;11075;47.944;11.776;2024-02-26T14:12:52;2.85;;;0.60;;
21825;SDS011;11075;47.944;11.776;2024-02-26T14:15:19;0.75;;;0.55;;
21825;SDS011;11075;47.944;11.776;2024-02-26T14:17:46;1.23;;;0.47;;
21825;SDS011;11075;47.944;11.776;2024-02-26T14:20:20;0.73;;;0.60;;
21825;SDS011;11075;47.944;11.776;2024-02-26T14:22:48;1.02;;;0.60;;
21825;SDS011;11075;47.944;11.776;2024-02-26T14:25:16;0.98;;;0.82;;
21825;SDS011;11075;47.944;11.776;2024-02-26T14:27:43;1.75;;;1.13;;
21825;SDS011;11075;47.944;11.776;2024-02-26T14:30:10;7.93;;;1.42;;
21825;SDS011;11075;47.944;11.776;2024-02-26T14:32:38;1.88;;;0.70;;
21825;SDS011;11075;47.944;11.776;2024-02-26T14:35:06;1.30;;;0.95;;
21825;SDS011;11075;47.944;11.776;2024-02-26T14:37:43;2.15;;;1.10;;
21825;SDS011;11075;47.944;11.776;2024-02-26T14:40:15;2.45;;;0.90;;
21825;SDS011;11075;47.944;11.776;2024-02-26T14:42:43;1.40;;;0.90;;
21825;SDS011;11075;47.944;11.776;2024-02-26T14:45:10;1.15;;;1.00;;